• Join FlightAware (Why Join?)
  • Login
  • US Flag 
02:38AM EDT


 

Airport Tracker/Info


-or-


 

Live Flight TrackerFlight Track Log ✈ ASA52 ✈ 13-Jun-2013 ✈ PAFA / FAI - PANC

Flight Track Log - Related Links

Times and Time Zones

All times are in EDT time to prevent confusion due to time zone crossing. See the ASA52 flight status page for this flight to view local times or setup timezone preferences in your user account.

Time Position Orientation Groundspeed Altitude Reporting Facility
EDT Latitude Longitude Course Direction KTS MPH feet Rate Location/Type
05:17PM 64.7500 -148.0667 214° Southwest 250 288 3,800  Level Anchorage Center
05:18PM 64.6833 -148.1500 208° Southwest 280 322 6,900 3,000 Climbing Anchorage Center
05:19PM 64.6000 -148.2167 199° South 290 334 9,900 2,220 Climbing Anchorage Center
05:20PM 64.5167 -148.2833 199° South 330 380 11,400 2,040 Climbing Anchorage Center
05:21PM 64.4500 -148.3500 203° Southwest 370 426 14,000 2,580 Climbing Anchorage Center
05:22PM 64.2143 -149.0771 214° Southwest  Level FlightAware Approximate
05:22PM 64.3500 -148.4333 200° South 380 437 16,600  Level Anchorage Center
05:23PM 64.2500 -148.5167 200° South 400 460 19,000 2,040 Climbing Anchorage Center
05:24PM 64.1333 -148.6000 197° South 410 472 20,800 1,920 Climbing Anchorage Center
05:25PM 64.0167 -148.7000 201° Southwest 430 495 22,900 1,740 Climbing Anchorage Center
05:26PM 63.9000 -148.8000 201° Southwest 450 518 24,400 1,380 Climbing Anchorage Center
05:27PM 63.7833 -148.8833 198° South 470 541 25,800 1,500 Climbing Anchorage Center
05:28PM 63.6500 -148.9833 198° South 490 564 27,400 1,620 Climbing Anchorage Center
05:29PM 63.5167 -149.0833 198° South 490 564 29,100 1,680 Climbing Anchorage Center
05:30PM 63.3833 -149.2167 204° Southwest 490 564 30,800 1,620 Climbing Anchorage Center
05:31PM 63.2500 -149.3167 199° South 490 564 32,400 1,080 Climbing Anchorage Center
05:32PM 63.1333 -149.3833 194° South 490 564 33,000 300 Climbing Anchorage Center
05:33PM 63.0167 -149.4833 201° Southwest 480 552 33,000  Level Anchorage Center
05:34PM 62.8833 -149.5833 199° South 470 541 33,000 -60 Level Anchorage Center
05:35PM 62.7333 -149.7000 200° South 490 564 32,900 -1,740 Descending Anchorage Center
05:36PM 62.6167 -149.7833 198° South 480 552 29,600 -3,300 Descending Anchorage Center
05:37PM 62.4833 -149.8667 196° South 500 575 26,300 -3,060 Descending Anchorage Center
05:38PM 62.3333 -149.9833 200° South 490 564 23,500 -2,700 Descending Anchorage Center
05:39PM 62.2167 -150.0667 198° South 470 541 20,900 -2,580 Descending Anchorage Center
05:40PM 62.1167 -150.1333 197° South 450 518 18,400 -2,580 Descending Anchorage Center
05:41PM 61.9833 -150.2333 199° South 420 483 15,800 -2,640 Descending Anchorage Center
05:43PM 61.8346 -150.3381 198° South  Level FlightAware Approximate
05:50PM 61.2266 -150.0124 149° Southeast  Level FlightAware Approximate
05:51PM 61.1741 -149.9982 270° West  Level Estimated
05:52PM 61.1741 -149.9982 270° West  Level Estimated
05:53PM 61.1741 -149.9982 270° West  Level Estimated
05:54PM 61.1741 -149.9982 270° West  Level Estimated
05:55PM 61.1741 -149.9982 270° West  Level Estimated
05:56PM 61.1741 -149.9982 270° West  Level Estimated
05:57PM 61.1741 -149.9982 270° West  Level Estimated
05:58PM 61.1741 -149.9982 270° West  Level Estimated
05:59PM 61.1741 -149.9982 270° West  Level Estimated
06:00PM 61.1741 -149.9982 270° West  Level Estimated
06:01PM 61.1741 -149.9982 270° West  Level Estimated
06:02PM 61.1741 -149.9982 270° West  Level Estimated
06:03PM 61.1741 -149.9982 270° West  Level Estimated
06:04PM 61.1741 -149.9982 270° West  Level Estimated